Time,TemperatureF,DewpointF,PressureIn,WindDirection,WindDirectionDegrees,WindSpeedMPH,WindSpeedGustMPH,Humidity,HourlyPrecipIn,Conditions,Clouds,dailyrainin,SoftwareType,DateUTC
2013-08-23 00:13:00,67.0,66.0,30.05,WNW,286,0.0,0.0,96,0.00,,,0.00,,2013-08-23 04:13:00,
2013-08-23 00:24:00,67.0,66.0,30.05,NW,304,0.0,0.0,97,0.00,,,0.00,,2013-08-23 04:24:00,
2013-08-23 00:43:00,68.0,67.0,30.05,NNW,338,0.0,2.0,97,0.00,,,0.00,,2013-08-23 04:43:00,
2013-08-23 00:54:00,68.0,67.0,30.06,North,357,0.0,1.0,97,0.00,,,0.00,,2013-08-23 04:54:00,
2013-08-23 01:13:00,68.0,67.0,30.06,NNW,345,0.0,2.0,97,0.00,,,0.00,,2013-08-23 05:13:00,
2013-08-23 01:22:00,68.0,67.0,30.06,North,352,0.0,1.0,97,0.00,,,0.00,,2013-08-23 05:22:00,
2013-08-23 01:42:00,68.0,67.0,30.07,North,352,0.0,1.0,97,0.00,,,0.00,,2013-08-23 05:42:00,
2013-08-23 01:53:00,68.0,67.0,30.08,North,359,0.0,1.0,97,0.00,,,0.00,,2013-08-23 05:53:00,
2013-08-23 02:12:00,67.0,66.0,30.08,North,1,0.0,0.0,96,0.00,,,0.00,,2013-08-23 06:12:00,
2013-08-23 02:22:00,67.0,66.0,30.09,North,1,0.0,0.0,95,0.00,,,0.00,,2013-08-23 06:22:00,
2013-08-23 02:42:00,66.0,64.0,30.09,East,80,0.0,2.0,93,0.00,,,0.00,,2013-08-23 06:42:00,
2013-08-23 02:52:00,66.0,63.0,30.09,East,80,0.0,1.0,90,0.00,,,0.00,,2013-08-23 06:52:00,
2013-08-23 03:12:00,65.0,62.0,30.09,East,79,0.0,0.0,90,0.00,,,0.00,,2013-08-23 07:12:00,
2013-08-23 03:22:00,64.0,61.0,30.09,East,80,0.0,0.0,91,0.00,,,0.00,,2013-08-23 07:22:00,
2013-08-23 03:53:00,63.0,61.0,30.09,East,80,0.0,0.0,93,0.00,,,0.00,,2013-08-23 07:53:00,
2013-08-23 04:13:00,62.0,60.0,30.09,East,79,0.0,0.0,94,0.00,,,0.00,,2013-08-23 08:13:00,
2013-08-23 04:22:00,61.0,59.0,30.09,East,80,0.0,0.0,94,0.00,,,0.00,,2013-08-23 08:22:00,
2013-08-23 04:42:00,61.0,60.0,30.09,East,79,0.0,0.0,95,0.00,,,0.00,,2013-08-23 08:42:00,
2013-08-23 04:52:00,61.0,60.0,30.09,East,79,0.0,0.0,95,0.00,,,0.00,,2013-08-23 08:52:00,
2013-08-23 05:12:00,60.0,59.0,30.09,East,79,0.0,0.0,95,0.00,,,0.00,,2013-08-23 09:12:00,
2013-08-23 05:21:00,60.0,59.0,30.09,East,79,0.0,0.0,96,0.00,,,0.00,,2013-08-23 09:21:00,
2013-08-23 05:43:00,59.0,58.0,30.09,East,79,0.0,0.0,96,0.00,,,0.00,,2013-08-23 09:43:00,
2013-08-23 05:53:00,59.0,58.0,30.09,East,79,0.0,0.0,96,0.00,,,0.00,,2013-08-23 09:53:00,
2013-08-23 06:13:00,59.0,58.0,30.10,East,79,0.0,0.0,96,0.00,,,0.00,,2013-08-23 10:13:00,
2013-08-23 06:23:00,58.0,57.0,30.10,East,79,0.0,0.0,96,0.00,,,0.00,,2013-08-23 10:23:00,
2013-08-23 06:42:00,58.0,57.0,30.11,East,79,0.0,0.0,96,0.00,,,0.00,,2013-08-23 10:42:00,
2013-08-23 06:53:00,57.0,56.0,30.11,East,79,0.0,0.0,96,0.00,,,0.00,,2013-08-23 10:53:00,
2013-08-23 07:11:00,57.0,56.0,30.11,East,79,0.0,0.0,97,0.00,,,0.00,,2013-08-23 11:11:00,
2013-08-23 07:22:00,57.0,56.0,30.12,East,79,0.0,0.0,97,0.00,,,0.00,,2013-08-23 11:22:00,
2013-08-23 07:42:00,56.0,55.0,30.13,East,79,0.0,0.0,97,0.00,,,0.00,,2013-08-23 11:42:00,
2013-08-23 07:53:00,56.0,55.0,30.14,East,79,0.0,0.0,97,0.00,,,0.00,,2013-08-23 11:53:00,
2013-08-23 08:11:00,57.0,56.0,30.14,East,79,0.0,0.0,98,0.00,,,0.00,,2013-08-23 12:11:00,
2013-08-23 08:22:00,59.0,58.0,30.14,East,80,0.0,0.0,98,0.00,,,0.00,,2013-08-23 12:22:00,
2013-08-23 08:42:00,65.0,63.0,30.15,East,80,0.0,0.0,92,0.00,,,0.00,,2013-08-23 12:42:00,
2013-08-23 09:12:00,65.0,59.0,30.15,North,356,0.0,1.0,81,0.00,,,0.00,,2013-08-23 13:12:00,
2013-08-23 09:22:00,64.0,58.0,30.16,North,357,0.0,1.0,82,0.00,,,0.00,,2013-08-23 13:22:00,
2013-08-23 09:42:00,64.0,58.0,30.16,North,355,0.0,1.0,81,0.00,,,0.00,,2013-08-23 13:42:00,
2013-08-23 09:53:00,65.0,58.0,30.16,NNW,348,0.0,2.0,78,0.00,,,0.00,,2013-08-23 13:53:00,
2013-08-23 10:12:00,66.0,59.0,30.16,NNW,338,0.0,2.0,77,0.00,,,0.00,,2013-08-23 14:12:00,
2013-08-23 10:22:00,67.0,59.0,30.16,NNE,27,0.0,3.0,75,0.00,,,0.00,,2013-08-23 14:22:00,
2013-08-23 10:42:00,68.0,59.0,30.16,WNW,292,0.0,3.0,74,0.00,,,0.00,,2013-08-23 14:42:00,
2013-08-23 10:52:00,69.0,60.0,30.16,WNW,285,0.0,1.0,73,0.00,,,0.00,,2013-08-23 14:52:00,
2013-08-23 11:11:00,70.0,60.0,30.16,NW,315,0.0,2.0,70,0.00,,,0.00,,2013-08-23 15:11:00,
2013-08-23 11:22:00,71.0,57.0,30.17,NW,311,0.0,4.0,62,0.00,,,0.00,,2013-08-23 15:22:00,
2013-08-23 11:44:00,73.0,57.0,30.17,WNW,284,2.0,6.0,57,0.00,,,0.00,,2013-08-23 15:44:00,
2013-08-23 11:54:00,74.0,58.0,30.17,WNW,289,0.0,3.0,58,0.00,,,0.00,,2013-08-23 15:54:00,
2013-08-23 12:13:00,74.0,55.0,30.16,NW,308,1.0,4.0,52,0.00,,,0.00,,2013-08-23 16:13:00,
2013-08-23 12:24:00,75.0,55.0,30.16,WNW,287,0.0,3.0,50,0.00,,,0.00,,2013-08-23 16:24:00,
2013-08-23 12:42:00,75.0,53.0,30.16,North,10,1.0,3.0,46,0.00,,,0.00,,2013-08-23 16:42:00,
2013-08-23 12:53:00,76.0,54.0,30.16,WNW,296,1.0,4.0,46,0.00,,,0.00,,2013-08-23 16:53:00,
2013-08-23 13:13:00,76.0,50.0,30.16,East,91,0.0,3.0,40,0.00,,,0.00,,2013-08-23 17:13:00,
2013-08-23 13:24:00,77.0,52.0,30.16,North,359,0.0,4.0,42,0.00,,,0.00,,2013-08-23 17:24:00,
2013-08-23 13:43:00,77.0,48.0,30.16,NNE,12,2.0,4.0,36,0.00,,,0.00,,2013-08-23 17:43:00,
2013-08-23 13:54:00,77.0,48.0,30.16,NW,310,2.0,5.0,36,0.00,,,0.00,,2013-08-23 17:54:00,
2013-08-23 14:12:00,78.0,46.0,30.15,NW,309,0.0,3.0,32,0.00,,,0.00,,2013-08-23 18:12:00,
2013-08-23 14:22:00,78.0,49.0,30.15,SE,134,0.0,2.0,36,0.00,,,0.00,,2013-08-23 18:22:00,
2013-08-23 14:42:00,79.0,50.0,30.15,NNW,333,1.0,3.0,37,0.00,,,0.00,,2013-08-23 18:42:00,
2013-08-23 14:52:00,79.0,49.0,30.15,East,100,0.0,2.0,35,0.00,,,0.00,,2013-08-23 18:52:00,
2013-08-23 15:12:00,80.0,51.0,30.15,NE,53,0.0,2.0,37,0.00,,,0.00,,2013-08-23 19:12:00,
2013-08-23 15:22:00,80.0,54.0,30.15,WNW,284,0.0,4.0,41,0.00,,,0.00,,2013-08-23 19:22:00,
2013-08-23 15:42:00,80.0,53.0,30.14,East,81,2.0,4.0,39,0.00,,,0.00,,2013-08-23 19:42:00,
2013-08-23 15:52:00,80.0,54.0,30.14,East,89,0.0,2.0,41,0.00,,,0.00,,2013-08-23 19:52:00,
2013-08-23 16:12:00,79.0,49.0,30.14,East,94,2.0,3.0,35,0.00,,,0.00,,2013-08-23 20:12:00,
2013-08-23 16:22:00,80.0,56.0,30.13,WNW,296,1.0,3.0,44,0.00,,,0.00,,2013-08-23 20:22:00,
2013-08-23 16:42:00,80.0,55.0,30.13,East,94,1.0,4.0,43,0.00,,,0.00,,2013-08-23 20:42:00,
2013-08-23 16:52:00,81.0,56.0,30.13,West,269,1.0,3.0,42,0.00,,,0.00,,2013-08-23 20:52:00,
2013-08-23 17:11:00,81.0,56.0,30.13,NW,306,0.0,2.0,43,0.00,,,0.00,,2013-08-23 21:11:00,
2013-08-23 17:22:00,80.0,57.0,30.12,WNW,293,0.0,2.0,45,0.00,,,0.00,,2013-08-23 21:22:00,
2013-08-23 17:44:00,78.0,56.0,30.13,NW,324,0.0,4.0,47,0.00,,,0.00,,2013-08-23 21:44:00,
2013-08-23 17:54:00,79.0,57.0,30.12,NNW,346,0.0,1.0,47,0.00,,,0.00,,2013-08-23 21:54:00,
2013-08-23 18:13:00,78.0,55.0,30.12,NNW,330,0.0,2.0,45,0.00,,,0.00,,2013-08-23 22:13:00,
2013-08-23 18:24:00,78.0,54.0,30.12,NNW,338,0.0,3.0,44,0.00,,,0.00,,2013-08-23 22:24:00,
2013-08-23 18:43:00,78.0,56.0,30.12,NNW,335,0.0,3.0,46,0.00,,,0.00,,2013-08-23 22:43:00,
2013-08-23 18:53:00,78.0,57.0,30.12,East,98,0.0,2.0,48,0.00,,,0.00,,2013-08-23 22:53:00,
2013-08-23 19:12:00,77.0,56.0,30.12,East,98,1.0,3.0,49,0.00,,,0.00,,2013-08-23 23:12:00,
2013-08-23 19:22:00,76.0,56.0,30.12,East,87,0.0,1.0,50,0.00,,,0.00,,2013-08-23 23:22:00,
2013-08-23 19:43:00,76.0,58.0,30.13,East,88,0.0,0.0,53,0.00,,,0.00,,2013-08-23 23:43:00,
2013-08-23 19:54:00,75.0,59.0,30.13,East,87,0.0,0.0,57,0.00,,,0.00,,2013-08-23 23:54:00,
2013-08-23 20:11:00,74.0,59.0,30.13,East,88,0.0,0.0,59,0.00,,,0.00,,2013-08-24 00:11:00,
2013-08-23 20:22:00,74.0,61.0,30.13,East,88,0.0,0.0,63,0.00,,,0.00,,2013-08-24 00:22:00,
2013-08-23 20:32:00,74.0,61.0,30.13,East,88,0.0,0.0,63,0.00,,,0.00,,2013-08-24 00:32:00,
2013-08-23 20:43:00,74.0,61.0,30.13,East,88,0.0,0.0,63,0.00,,,0.00,,2013-08-24 00:43:00,
2013-08-23 21:11:00,68.0,60.0,30.14,East,87,0.0,0.0,75,0.00,,,0.00,,2013-08-24 01:11:00,
2013-08-23 21:42:00,66.0,59.0,30.16,East,88,0.0,0.0,79,0.00,,,0.00,,2013-08-24 01:42:00,
2013-08-23 21:53:00,65.0,59.0,30.16,East,88,0.0,0.0,81,0.00,,,0.00,,2013-08-24 01:53:00,
2013-08-23 22:12:00,65.0,59.0,30.17,East,87,0.0,0.0,81,0.00,,,0.00,,2013-08-24 02:12:00,
2013-08-23 22:22:00,65.0,59.0,30.17,East,88,0.0,0.0,80,0.00,,,0.00,,2013-08-24 02:22:00,
2013-08-23 22:42:00,65.0,59.0,30.18,East,86,0.0,1.0,80,0.00,,,0.00,,2013-08-24 02:42:00,
2013-08-23 22:52:00,64.0,58.0,30.19,East,86,0.0,0.0,80,0.00,,,0.00,,2013-08-24 02:52:00,
2013-08-23 23:02:00,64.0,58.0,30.19,East,86,0.0,0.0,80,0.00,,,0.00,,2013-08-24 03:02:00,
2013-08-23 23:12:00,64.0,58.0,30.19,East,86,0.0,0.0,80,0.00,,,0.00,,2013-08-24 03:12:00,
2013-08-23 23:22:00,64.0,58.0,30.19,East,86,0.0,0.0,81,0.00,,,0.00,,2013-08-24 03:22:00,
2013-08-23 23:44:00,63.0,57.0,30.19,East,86,0.0,0.0,82,0.00,,,0.00,,2013-08-24 03:44:00,
2013-08-23 23:54:00,63.0,58.0,30.19,East,86,0.0,0.0,84,0.00,,,0.00,,2013-08-24 03:54:00,